Quick Links (Output Below):   Max & Min Temps   /   Climate Reports   /   Zone Forecasts
River Forecasts   /   Forestry Forecasts   /   Aviation Forecasts   /   Radars   /   Features

Terminal Aerodrome Forecast (Fayetteville)

Pick a Site:
Arkadelphia | El Dorado | Fayetteville | Fort Smith | Harrison | Highfill | Hot Springs | Jonesboro
Little Rock | Monticello | Mountain Home | Pine Bluff | Texarkana
 Forecast 

KFYV 181730Z 1818/1918 00000KT P6SM OVC009
      TEMPO 1818/1821 OVC012
     FM182100 29003KT P6SM OVC015
     FM190600 00000KT 5SM BR OVC007
     FM190900 00000KT 3SM BR OVC004=


 Latest METARs (Observations) 
How to Decode METARs
18Z KFYV 181753Z 00000KT 10SM OVC009 04/03 A3017 RMK AO2 SLP223
         T00440028 10044 20022 58005
         
17Z KFYV 181653Z 20004KT 10SM OVC009 04/03 A3019 RMK AO2 SLP229
         T00390028
         
16Z KFYV 181553Z 17003KT 10SM OVC008 03/02 A3019 RMK AO2 SLP231
         T00280022
         
15Z KFYV 181453Z 20004KT 10SM OVC008 02/02 A3019 RMK AO2 SLP230
         T00220017 51013
         
14Z KFYV 181353Z 00000KT 10SM OVC010 02/02 A3018 RMK AO2 SLP225
         T00220017
         
13Z KFYV 181253Z 00000KT 9SM OVC011 02/02 A3016 RMK AO2 SLP221
         T00220017
         
12Z KFYV 181153Z 00000KT 10SM OVC014 02/02 A3015 RMK AO2 SLP216 60000
         70071 T00220017 10028 20022 51004
         
11Z KFYV 181053Z AUTO 16003KT 9SM OVC013 02/01 A3014 RMK AO2
         UPB0956E08 SLP214 P0000 T00220011
         
10Z KFYV 180953Z AUTO 21005KT 10SM OVC019 03/01 A3016 RMK AO2 SLP218
         T00280011
         
09Z KFYV 180853Z AUTO 00000KT 10SM OVC026 03/02 A3014 RMK AO2 SLP212
         60000 T00280017 56010
         
***** Today's Observations (Above) *****


Back to Main Page
http://www.srh.noaa.gov/lzk/qfcst.php

USA.gov is the U.S. government's official web portal to all federal, state and local government web resources and services.